createdAt,value
2022-10-22T00:00:58.258Z,21.13
2022-10-22T00:03:26.156Z,20.53
2022-10-22T00:05:54.068Z,20.40
2022-10-22T00:08:22.052Z,20.90
2022-10-22T00:10:50.140Z,22.10
2022-10-22T00:13:18.509Z,21.13
2022-10-22T00:15:47.778Z,21.20
2022-10-22T00:18:16.004Z,21.23
2022-10-22T00:20:44.069Z,21.17
2022-10-22T00:23:11.991Z,21.17
2022-10-22T00:25:39.880Z,21.50
2022-10-22T00:28:07.840Z,22.00
2022-10-22T00:30:35.744Z,21.57
2022-10-22T00:33:05.180Z,20.10
2022-10-22T00:35:33.828Z,20.87
2022-10-22T00:38:01.764Z,22.07
2022-10-22T00:40:29.704Z,21.47
2022-10-22T00:42:57.591Z,21.33
2022-10-22T00:45:26.563Z,21.43
2022-10-22T00:47:58.830Z,21.20
2022-10-22T00:50:32.504Z,20.27
2022-10-22T00:53:02.431Z,20.50
2022-10-22T00:55:31.631Z,21.50
2022-10-22T00:58:00.907Z,21.40
2022-10-22T01:00:29.527Z,20.87
2022-10-22T01:02:58.350Z,20.30
2022-10-22T01:05:30.309Z,19.93
2022-10-22T01:07:58.403Z,21.60
2022-10-22T01:10:36.919Z,20.50
2022-10-22T01:13:17.562Z,21.77
2022-10-22T01:15:51.262Z,20.63
2022-10-22T01:18:25.056Z,19.97
2022-10-22T01:21:05.015Z,21.83
2022-10-22T01:24:09.627Z,21.47
2022-10-22T01:26:48.615Z,22.73
2022-10-22T01:29:22.360Z,22.30
2022-10-22T01:31:57.744Z,23.30
2022-10-22T01:34:26.913Z,22.50
2022-10-22T01:36:56.991Z,23.23
2022-10-22T01:39:26.695Z,23.27
2022-10-22T01:41:56.083Z,22.87
2022-10-22T01:44:27.472Z,23.23
2022-10-22T01:47:03.854Z,23.13
2022-10-22T01:49:41.023Z,23.67
2022-10-22T01:52:22.174Z,23.77
2022-10-22T01:55:00.806Z,24.30
2022-10-22T01:57:47.803Z,22.47
2022-10-22T02:00:19.895Z,22.87
2022-10-22T02:02:57.398Z,22.30
2022-10-22T02:05:30.927Z,22.13
2022-10-22T02:08:02.854Z,24.07
2022-10-22T02:10:31.942Z,24.03
2022-10-22T02:13:02.186Z,23.40
2022-10-22T02:15:36.455Z,22.73
2022-10-22T02:18:06.578Z,24.83
2022-10-22T02:20:36.542Z,24.27
2022-10-22T02:23:05.626Z,24.30
2022-10-22T02:25:36.845Z,24.87
2022-10-22T02:28:17.309Z,22.67
2022-10-22T02:30:53.955Z,23.33
2022-10-22T02:33:25.318Z,24.17
2022-10-22T02:35:54.190Z,21.27
2022-10-22T02:38:23.869Z,21.50
2022-10-22T02:40:51.837Z,23.07
2022-10-22T02:43:20.083Z,24.40
2022-10-22T02:45:49.391Z,24.83
2022-10-22T02:48:17.327Z,25.00
2022-10-22T02:50:45.226Z,24.50
2022-10-22T02:53:13.105Z,23.20
2022-10-22T02:55:40.998Z,24.47
2022-10-22T02:58:08.880Z,24.00
2022-10-22T03:00:36.995Z,25.57
2022-10-22T03:03:06.361Z,25.67
2022-10-22T03:05:34.274Z,26.53
2022-10-22T03:08:02.236Z,25.20
2022-10-22T03:10:30.153Z,26.23
2022-10-22T03:12:58.145Z,26.70
2022-10-22T03:17:58.832Z,27.50
2022-10-22T03:20:28.406Z,27.63
2022-10-22T03:22:57.373Z,28.00
2022-10-22T03:25:27.931Z,25.93
2022-10-22T03:27:58.493Z,27.43
2022-10-22T03:30:26.373Z,25.33
2022-10-22T03:32:54.268Z,25.53
2022-10-22T03:35:22.262Z,25.93
2022-10-22T03:37:52.025Z,25.73
2022-10-22T03:40:20.813Z,25.43
2022-10-22T03:42:48.868Z,26.07
2022-10-22T03:45:16.813Z,25.83
2022-10-22T03:47:45.052Z,25.53
2022-10-22T03:50:13.284Z,25.37
2022-10-22T03:52:41.517Z,24.37
2022-10-22T03:55:11.504Z,25.40
2022-10-22T03:57:39.756Z,25.53
2022-10-22T04:00:09.904Z,26.60
2022-10-22T04:02:37.892Z,28.80
2022-10-22T04:05:06.516Z,27.83
2022-10-22T04:07:34.508Z,28.53
2022-10-22T04:10:02.412Z,28.73
2022-10-22T04:12:31.660Z,28.07
2022-10-22T04:14:59.600Z,27.50
2022-10-22T04:17:27.499Z,27.20
2022-10-22T04:19:55.440Z,26.33
2022-10-22T04:22:23.328Z,27.60
2022-10-22T04:27:23.995Z,28.33
2022-10-22T04:29:53.586Z,28.43
2022-10-22T04:32:21.536Z,28.63
2022-10-22T04:34:49.434Z,27.60
2022-10-22T04:37:17.307Z,28.07
2022-10-22T04:39:45.187Z,27.73
2022-10-22T04:42:13.065Z,27.83
2022-10-22T04:44:40.967Z,27.90
2022-10-22T04:47:10.213Z,28.63
2022-10-22T04:49:38.097Z,27.57
2022-10-22T04:52:06.228Z,27.37
2022-10-22T04:54:34.159Z,29.63
2022-10-22T04:57:02.059Z,27.70
2022-10-22T04:59:29.995Z,28.77
2022-10-22T05:01:58.076Z,28.87
2022-10-22T05:04:27.360Z,37.93
2022-10-22T05:06:55.259Z,34.83
2022-10-22T05:09:23.282Z,32.73
2022-10-22T05:11:53.220Z,29.67
2022-10-22T05:14:23.584Z,28.97
2022-10-22T05:16:52.371Z,33.13
2022-10-22T05:19:23.920Z,29.37
2022-10-22T05:21:53.631Z,31.17
2022-10-22T05:24:21.801Z,30.23
2022-10-22T05:26:50.875Z,33.13
2022-10-22T05:29:19.091Z,30.97
2022-10-22T05:31:47.068Z,34.13
2022-10-22T05:34:15.500Z,33.93
2022-10-22T05:36:43.638Z,32.33
2022-10-22T05:39:12.992Z,33.30
2022-10-22T05:41:41.260Z,31.57
2022-10-22T05:44:09.282Z,31.83
2022-10-22T05:46:37.681Z,34.43
2022-10-22T05:49:08.131Z,35.57
2022-10-22T05:51:37.658Z,35.27
2022-10-22T05:54:10.966Z,32.63
2022-10-22T05:56:40.212Z,37.20
2022-10-22T05:59:08.097Z,34.70
2022-10-22T06:01:36.408Z,33.00
2022-10-22T06:04:07.884Z,31.70
2022-10-22T06:06:38.172Z,32.27
2022-10-22T06:09:12.679Z,33.30
2022-10-22T06:11:42.046Z,32.10
2022-10-22T06:14:11.311Z,32.67
2022-10-22T06:16:39.470Z,32.17
2022-10-22T06:19:07.608Z,33.47
2022-10-22T06:21:35.496Z,32.77
2022-10-22T06:24:03.401Z,34.87
2022-10-22T06:26:31.756Z,32.57
2022-10-22T06:29:01.276Z,32.30
2022-10-22T06:31:29.972Z,33.37
2022-10-22T06:33:58.345Z,34.93
2022-10-22T06:36:26.241Z,38.30
2022-10-22T06:38:55.226Z,42.53
2022-10-22T06:41:27.073Z,47.10
2022-10-22T06:43:57.897Z,47.97
2022-10-22T06:46:27.932Z,46.27
2022-10-22T06:48:57.489Z,43.67
2022-10-22T06:51:26.232Z,43.00
2022-10-22T06:53:55.504Z,41.67
2022-10-22T06:56:24.631Z,41.10
2022-10-22T06:58:54.010Z,45.20
2022-10-22T07:01:24.108Z,51.47
2022-10-22T07:03:53.859Z,50.10
2022-10-22T07:06:23.059Z,50.03
2022-10-22T07:08:51.374Z,48.80
2022-10-22T07:11:21.441Z,50.80
2022-10-22T07:13:50.231Z,48.37
2022-10-22T07:16:19.283Z,46.60
2022-10-22T07:18:48.383Z,43.27
2022-10-22T07:21:20.325Z,42.93
2022-10-22T07:23:48.663Z,42.80
2022-10-22T07:26:20.310Z,41.97
2022-10-22T07:28:48.833Z,36.47
2022-10-22T07:31:19.741Z,32.30
2022-10-22T07:33:47.835Z,30.40
2022-10-22T07:36:18.515Z,29.63
2022-10-22T07:38:46.991Z,31.00
2022-10-22T07:41:15.580Z,31.67
2022-10-22T07:43:43.571Z,28.63
2022-10-22T07:46:11.483Z,27.73
2022-10-22T07:48:39.558Z,29.87
2022-10-22T07:51:07.988Z,31.57
2022-10-22T07:53:37.602Z,31.83
2022-10-22T07:56:06.056Z,34.03
2022-10-22T07:58:34.089Z,31.20
2022-10-22T08:01:05.689Z,34.53
2022-10-22T08:03:34.179Z,31.67
2022-10-22T08:06:02.770Z,30.93
2022-10-22T08:08:31.046Z,32.40
2022-10-22T08:11:02.503Z,30.07
2022-10-22T08:13:31.564Z,23.80
2022-10-22T08:16:00.081Z,24.90
2022-10-22T08:18:28.693Z,22.40
2022-10-22T08:20:56.782Z,22.73
2022-10-22T08:23:27.733Z,21.80
2022-10-22T08:25:57.131Z,22.13
2022-10-22T08:28:28.738Z,22.30
2022-10-22T08:30:57.067Z,22.27
2022-10-22T08:33:25.182Z,20.77
2022-10-22T08:35:53.810Z,21.50
2022-10-22T08:38:22.122Z,21.50
2022-10-22T08:40:53.283Z,21.83
2022-10-22T08:43:57.096Z,21.40
2022-10-22T08:46:40.494Z,22.20
2022-10-22T08:49:17.124Z,24.33
2022-10-22T08:51:45.123Z,21.23
2022-10-22T08:54:26.089Z,22.03
2022-10-22T08:57:06.057Z,21.63
2022-10-22T08:59:41.846Z,22.27
2022-10-22T09:02:24.705Z,20.33
2022-10-22T09:04:59.933Z,24.87
2022-10-22T09:07:27.837Z,23.87
2022-10-22T09:09:58.938Z,22.33
2022-10-22T09:12:29.089Z,22.73
2022-10-22T09:14:58.388Z,21.73
2022-10-22T09:17:35.677Z,21.57
2022-10-22T09:20:15.911Z,18.53
2022-10-22T09:22:50.991Z,19.77
2022-10-22T09:25:22.246Z,19.13
2022-10-22T09:27:52.526Z,21.73
2022-10-22T09:30:24.284Z,26.07
2022-10-22T09:32:55.772Z,19.83
2022-10-22T09:35:25.252Z,22.73
2022-10-22T09:37:55.145Z,21.57
2022-10-22T09:40:23.593Z,20.67
2022-10-22T09:42:51.528Z,20.57
2022-10-22T09:45:25.268Z,20.10
2022-10-22T09:48:10.682Z,20.07
2022-10-22T09:50:44.360Z,20.53
2022-10-22T09:53:18.348Z,20.07
2022-10-22T09:55:52.009Z,21.80
2022-10-22T09:58:20.836Z,21.03
2022-10-22T10:00:55.929Z,21.47
2022-10-22T10:03:26.530Z,19.73
2022-10-22T10:05:56.340Z,20.77
2022-10-22T10:08:26.246Z,20.17
2022-10-22T10:10:58.957Z,21.60
2022-10-22T10:13:53.238Z,20.60
2022-10-22T10:16:34.029Z,21.53
2022-10-22T10:19:18.821Z,22.40
2022-10-22T10:21:56.201Z,22.97
2022-10-22T10:24:31.545Z,22.60
2022-10-22T10:27:03.773Z,23.33
2022-10-22T10:29:46.090Z,20.60
2022-10-22T10:32:42.453Z,19.77
2022-10-22T10:35:21.336Z,18.77
2022-10-22T10:38:03.426Z,19.73
2022-10-22T10:40:41.204Z,19.13
2022-10-22T10:43:16.294Z,19.97
2022-10-22T10:45:55.811Z,20.63
2022-10-22T10:48:37.965Z,19.57
2022-10-22T10:51:15.101Z,17.83
2022-10-22T10:53:56.085Z,19.30
2022-10-22T10:56:36.784Z,19.07
2022-10-22T10:59:16.381Z,20.00
2022-10-22T11:01:54.940Z,18.60
2022-10-22T11:04:54.076Z,19.67
2022-10-22T11:07:34.590Z,19.20
2022-10-22T11:10:10.895Z,20.37
2022-10-22T11:12:43.437Z,20.10
2022-10-22T11:15:29.137Z,20.00
2022-10-22T11:18:03.932Z,20.57
2022-10-22T11:20:42.092Z,20.57
2022-10-22T11:23:20.772Z,21.63
2022-10-22T11:25:51.289Z,20.33
2022-10-22T11:28:24.772Z,20.80
2022-10-22T11:30:57.900Z,21.07
2022-10-22T11:33:30.344Z,22.43
2022-10-22T11:36:02.718Z,19.80
2022-10-22T11:38:32.866Z,20.03
2022-10-22T11:41:06.679Z,22.20
2022-10-22T11:43:36.505Z,21.00
2022-10-22T11:46:27.704Z,23.20
2022-10-22T11:49:17.391Z,22.67
2022-10-22T11:51:47.980Z,22.40
2022-10-22T11:54:42.678Z,22.33
2022-10-22T11:57:20.784Z,21.70
2022-10-22T11:59:54.467Z,21.57
2022-10-22T12:02:42.032Z,22.50
2022-10-22T12:05:33.563Z,21.53
2022-10-22T12:08:22.943Z,21.60
2022-10-22T12:11:05.948Z,22.13
2022-10-22T12:13:51.791Z,21.67
2022-10-22T12:16:32.159Z,20.97
2022-10-22T12:19:15.580Z,20.10
2022-10-22T12:21:45.332Z,19.70
2022-10-22T12:24:18.187Z,19.73
2022-10-22T12:26:47.056Z,30.97
2022-10-22T12:29:17.367Z,27.80
2022-10-22T12:31:47.176Z,21.97
2022-10-22T12:34:16.512Z,20.47
2022-10-22T12:36:45.115Z,19.90
2022-10-22T12:39:17.164Z,19.90
2022-10-22T12:41:45.423Z,21.27
2022-10-22T12:44:15.550Z,20.30
2022-10-22T12:46:45.254Z,20.87
2022-10-22T12:49:18.958Z,18.80
2022-10-22T12:51:48.234Z,20.63
2022-10-22T12:54:25.983Z,20.67
2022-10-22T12:56:55.776Z,18.53
2022-10-22T12:59:25.808Z,19.53
2022-10-22T13:01:54.514Z,18.87
2022-10-22T13:04:38.195Z,17.63
2022-10-22T13:07:22.251Z,17.83
2022-10-22T13:10:00.506Z,17.47
2022-10-22T13:12:35.634Z,17.80
2022-10-22T13:15:23.042Z,16.67
2022-10-22T13:17:51.223Z,16.43
2022-10-22T13:20:21.914Z,15.97
2022-10-22T13:23:00.246Z,15.83
2022-10-22T13:25:31.550Z,14.50
2022-10-22T13:28:02.440Z,14.67
2022-10-22T13:30:31.819Z,13.30
2022-10-22T13:33:01.519Z,14.00
2022-10-22T13:35:32.128Z,14.27
2022-10-22T13:38:00.777Z,16.17
2022-10-22T13:40:30.425Z,16.03
2022-10-22T13:42:58.343Z,15.50
2022-10-22T13:45:26.272Z,15.07
2022-10-22T13:47:55.433Z,15.17
2022-10-22T13:50:23.436Z,15.30
2022-10-22T13:52:53.810Z,15.60
2022-10-22T13:55:25.659Z,14.67
2022-10-22T13:57:57.289Z,15.43
2022-10-22T14:00:26.209Z,12.73
2022-10-22T14:02:58.145Z,16.20
2022-10-22T14:05:26.394Z,13.13
2022-10-22T14:07:54.462Z,15.73
2022-10-22T14:10:24.287Z,14.23
2022-10-22T14:12:53.937Z,13.57
2022-10-22T14:15:24.802Z,13.13
2022-10-22T14:17:57.177Z,13.43
2022-10-22T14:20:27.624Z,14.90
2022-10-22T14:22:56.051Z,15.40
2022-10-22T14:25:25.596Z,15.97
2022-10-22T14:27:54.881Z,14.20
2022-10-22T14:30:24.809Z,15.50
2022-10-22T14:32:53.384Z,15.17
2022-10-22T14:35:23.414Z,19.90
2022-10-22T14:37:51.679Z,14.70
2022-10-22T14:40:21.569Z,14.23
2022-10-22T14:42:50.181Z,12.30
2022-10-22T14:45:22.041Z,11.77
2022-10-22T14:47:50.352Z,15.37
2022-10-22T14:50:18.436Z,16.30
2022-10-22T14:52:46.540Z,12.60
2022-10-22T14:55:16.249Z,13.00
2022-10-22T14:57:44.734Z,12.00
2022-10-22T15:00:15.183Z,12.00
2022-10-22T15:02:45.006Z,11.27
2022-10-22T15:05:13.365Z,10.30
2022-10-22T15:07:41.632Z,10.63
2022-10-22T15:10:10.724Z,13.00
2022-10-22T15:12:38.672Z,11.30
2022-10-22T15:15:07.949Z,13.20
2022-10-22T15:17:35.904Z,10.70
2022-10-22T15:20:06.207Z,11.13
2022-10-22T15:22:36.063Z,11.00
2022-10-22T15:25:09.510Z,11.17
2022-10-22T15:27:37.719Z,10.23
2022-10-22T15:30:06.978Z,9.77
2022-10-22T15:32:34.917Z,10.73
2022-10-22T15:35:03.248Z,12.80
2022-10-22T15:37:32.544Z,12.10
2022-10-22T15:40:00.685Z,12.87
2022-10-22T15:42:28.587Z,12.93
2022-10-22T15:44:59.958Z,12.97
2022-10-22T15:47:29.732Z,13.57
2022-10-22T15:49:58.010Z,12.37
2022-10-22T15:52:26.085Z,12.70
2022-10-22T15:54:55.477Z,27.37
2022-10-22T15:57:23.436Z,14.90
2022-10-22T15:59:51.953Z,15.00
2022-10-22T16:02:19.855Z,13.83
2022-10-22T16:04:47.961Z,13.50
2022-10-22T16:07:21.046Z,12.67
2022-10-22T16:09:52.005Z,13.13
2022-10-22T16:12:21.231Z,13.90
2022-10-22T16:14:51.193Z,12.63
2022-10-22T16:17:19.551Z,14.00
2022-10-22T16:19:49.071Z,14.00
2022-10-22T16:22:17.093Z,15.97
2022-10-22T16:24:45.037Z,14.80
2022-10-22T16:27:12.982Z,14.70
2022-10-22T16:29:42.232Z,13.87
2022-10-22T16:32:10.174Z,15.00
2022-10-22T16:34:38.147Z,15.10
2022-10-22T16:37:10.278Z,14.87
2022-10-22T16:39:38.707Z,16.03
2022-10-22T16:42:07.024Z,15.57
2022-10-22T16:44:34.951Z,16.53
2022-10-22T16:47:04.386Z,19.60
2022-10-22T16:49:32.362Z,25.83
2022-10-22T16:52:00.263Z,19.17
2022-10-22T16:54:28.279Z,17.93
2022-10-22T16:56:56.154Z,20.67
2022-10-22T16:59:24.062Z,18.93
2022-10-22T17:01:52.089Z,20.50
2022-10-22T17:04:22.474Z,18.23
2022-10-22T17:06:50.382Z,20.10
2022-10-22T17:09:18.354Z,19.27
2022-10-22T17:11:46.412Z,19.83
2022-10-22T17:14:14.322Z,19.83
2022-10-22T17:16:42.250Z,18.73
2022-10-22T17:19:14.043Z,19.97
2022-10-22T17:21:43.783Z,19.00
2022-10-22T17:24:11.975Z,18.97
2022-10-22T17:26:39.877Z,17.87
2022-10-22T17:29:08.258Z,18.30
2022-10-22T17:31:37.976Z,23.37
2022-10-22T17:34:07.318Z,22.23
2022-10-22T17:36:36.291Z,19.77
2022-10-22T17:39:08.609Z,18.83
2022-10-22T17:41:37.959Z,20.43
2022-10-22T17:44:09.010Z,19.63
2022-10-22T17:46:37.321Z,19.00
2022-10-22T17:49:07.926Z,24.57
2022-10-22T17:51:35.961Z,24.17
2022-10-22T17:54:07.504Z,28.20
2022-10-22T17:56:40.050Z,32.20
2022-10-22T17:59:08.210Z,28.43
2022-10-22T18:01:39.413Z,33.07
2022-10-22T18:04:09.231Z,23.43
2022-10-22T18:06:37.598Z,18.83
2022-10-22T18:09:07.793Z,20.90
2022-10-22T18:11:37.356Z,19.73
2022-10-22T18:14:05.586Z,20.50
2022-10-22T18:16:33.821Z,21.10
2022-10-22T18:19:01.941Z,20.73
2022-10-22T18:21:31.249Z,24.47
2022-10-22T18:24:00.146Z,25.67
2022-10-22T18:26:29.697Z,23.37
2022-10-22T18:28:59.155Z,24.33
2022-10-22T18:31:30.305Z,24.37
2022-10-22T18:33:58.434Z,24.73
2022-10-22T18:36:28.240Z,22.70
2022-10-22T18:38:58.057Z,24.50
2022-10-22T18:41:26.362Z,25.50
2022-10-22T18:43:57.024Z,27.00
2022-10-22T18:46:25.185Z,23.97
2022-10-22T18:48:54.467Z,26.43
2022-10-22T18:51:22.929Z,24.10
2022-10-22T18:54:04.576Z,22.80
2022-10-22T18:56:40.652Z,24.00
2022-10-22T18:59:16.119Z,26.07
2022-10-22T19:01:44.113Z,27.10
2022-10-22T19:04:14.004Z,26.40
2022-10-22T19:06:45.683Z,26.13
2022-10-22T19:09:14.765Z,26.00
2022-10-22T19:11:43.617Z,32.50
2022-10-22T19:14:14.676Z,28.70
2022-10-22T19:16:42.879Z,28.00
2022-10-22T19:19:12.345Z,25.73
2022-10-22T19:21:40.236Z,25.13
2022-10-22T19:24:11.288Z,27.23
2022-10-22T19:26:39.802Z,25.80
2022-10-22T19:29:07.823Z,25.87
2022-10-22T19:31:37.870Z,26.23
2022-10-22T19:34:06.150Z,25.30
2022-10-22T19:36:34.534Z,24.83
2022-10-22T19:39:03.841Z,28.23
2022-10-22T19:41:32.945Z,29.30
2022-10-22T19:44:01.773Z,25.57
2022-10-22T19:46:32.481Z,24.37
2022-10-22T19:49:03.822Z,25.73
2022-10-22T19:51:34.502Z,28.10
2022-10-22T19:54:06.146Z,25.93
2022-10-22T19:56:35.393Z,26.97
2022-10-22T19:59:04.265Z,24.13
2022-10-22T20:01:32.725Z,24.33
2022-10-22T20:04:02.474Z,23.90
2022-10-22T20:06:30.899Z,29.83
2022-10-22T20:08:59.229Z,26.57
2022-10-22T20:11:29.845Z,26.50
2022-10-22T20:13:57.867Z,26.40
2022-10-22T20:16:28.545Z,26.10
2022-10-22T20:18:59.935Z,25.87
2022-10-22T20:21:31.078Z,24.50
2022-10-22T20:23:59.357Z,25.13
2022-10-22T20:26:28.889Z,25.23
2022-10-22T20:28:57.552Z,24.17
2022-10-22T20:31:28.605Z,25.93
2022-10-22T20:33:58.484Z,31.80
2022-10-22T20:36:27.118Z,28.73
2022-10-22T20:39:00.614Z,31.87
2022-10-22T20:41:28.781Z,27.83
2022-10-22T20:43:56.793Z,34.40
2022-10-22T20:46:26.652Z,50.17
2022-10-22T20:48:56.456Z,42.27
2022-10-22T20:51:24.376Z,26.17
2022-10-22T20:53:52.344Z,24.33
2022-10-22T20:56:21.776Z,24.97
2022-10-22T20:58:50.273Z,24.80
2022-10-22T21:01:21.811Z,24.50
2022-10-22T21:03:50.178Z,24.70
2022-10-22T21:06:20.945Z,23.83
2022-10-22T21:08:49.060Z,24.53
2022-10-22T21:11:17.069Z,23.37
2022-10-22T21:13:46.463Z,23.70
2022-10-22T21:16:15.686Z,23.77
2022-10-22T21:18:43.655Z,23.63
2022-10-22T21:21:11.714Z,23.40
2022-10-22T21:23:43.095Z,24.13
2022-10-22T21:26:11.238Z,23.63
2022-10-22T21:28:39.957Z,23.00
2022-10-22T21:31:14.258Z,22.47
2022-10-22T21:33:42.191Z,22.37
2022-10-22T21:36:10.587Z,21.33
2022-10-22T21:38:39.331Z,22.03
2022-10-22T21:41:08.239Z,20.70
2022-10-22T21:43:38.578Z,21.17
2022-10-22T21:46:08.412Z,20.70
2022-10-22T21:48:38.719Z,19.73
2022-10-22T21:51:08.223Z,19.87
2022-10-22T21:53:36.452Z,19.53
2022-10-22T21:56:04.616Z,18.60
2022-10-22T21:58:34.427Z,20.77
2022-10-22T22:01:02.640Z,18.70
2022-10-22T22:03:30.864Z,18.47
2022-10-22T22:06:01.184Z,19.13
2022-10-22T22:08:29.467Z,18.87
2022-10-22T22:11:03.168Z,19.07
2022-10-22T22:13:31.235Z,17.10
2022-10-22T22:16:02.985Z,18.30
2022-10-22T22:18:31.119Z,18.13
2022-10-22T22:21:01.352Z,17.97
2022-10-22T22:23:29.351Z,17.73
2022-10-22T22:26:00.935Z,18.23
2022-10-22T22:28:31.145Z,18.53
2022-10-22T22:30:59.783Z,17.97
2022-10-22T22:33:28.179Z,17.63
2022-10-22T22:36:00.570Z,17.07
2022-10-22T22:38:28.515Z,18.30
2022-10-22T22:40:56.459Z,19.10
2022-10-22T22:43:24.320Z,19.47
2022-10-22T22:46:00.543Z,17.37
2022-10-22T22:48:28.783Z,17.13
2022-10-22T22:50:56.754Z,19.00
2022-10-22T22:53:26.025Z,17.63
2022-10-22T22:56:04.410Z,17.63
2022-10-22T22:58:32.402Z,17.47
2022-10-22T23:01:15.208Z,18.37
2022-10-22T23:03:44.367Z,17.83
2022-10-22T23:06:13.104Z,17.03
2022-10-22T23:08:43.330Z,19.67
2022-10-22T23:11:13.450Z,18.90
2022-10-22T23:13:42.414Z,21.03
2022-10-22T23:16:14.351Z,20.63
2022-10-22T23:18:42.480Z,21.83
2022-10-22T23:21:14.496Z,21.10
2022-10-22T23:23:45.846Z,19.93
2022-10-22T23:26:14.954Z,20.73
2022-10-22T23:28:42.886Z,20.53
2022-10-22T23:31:13.468Z,19.73
2022-10-22T23:33:41.453Z,20.70
2022-10-22T23:36:09.542Z,20.07
2022-10-22T23:38:39.034Z,18.77
2022-10-22T23:41:08.809Z,18.50
2022-10-22T23:43:37.795Z,18.23
2022-10-22T23:46:06.438Z,18.07
2022-10-22T23:48:34.869Z,17.20
2022-10-22T23:51:06.431Z,17.63
2022-10-22T23:53:34.446Z,18.20
2022-10-22T23:56:05.889Z,17.77
2022-10-22T23:58:35.981Z,18.07
